createdAt,value
2018-02-21T00:00:09.436Z,70.60
2018-02-21T00:02:38.325Z,73.70
2018-02-21T00:05:07.230Z,74.93
2018-02-21T00:07:36.083Z,68.93
2018-02-21T00:10:05.683Z,62.95
2018-02-21T00:12:34.515Z,61.92
2018-02-21T00:15:03.545Z,63.00
2018-02-21T00:17:32.371Z,68.65
2018-02-21T00:20:01.266Z,63.45
2018-02-21T00:22:30.089Z,70.47
2018-02-21T00:24:59.522Z,64.12
2018-02-21T00:27:28.360Z,70.12
2018-02-21T00:29:57.246Z,81.15
2018-02-21T00:32:26.166Z,73.55
2018-02-21T00:34:55.039Z,74.57
2018-02-21T00:37:24.498Z,72.25
2018-02-21T00:39:53.396Z,67.32
2018-02-21T00:42:22.220Z,72.62
2018-02-21T00:44:51.075Z,67.43
2018-02-21T00:47:19.893Z,76.68
2018-02-21T00:49:48.721Z,64.65
2018-02-21T00:52:17.556Z,76.30
2018-02-21T00:54:46.381Z,67.97
2018-02-21T00:57:15.221Z,73.95
2018-02-21T00:59:44.062Z,67.43
2018-02-21T01:02:12.881Z,68.05
2018-02-21T01:04:41.747Z,73.40
2018-02-21T01:07:10.583Z,67.07
2018-02-21T01:09:39.396Z,61.80
2018-02-21T01:12:08.285Z,59.25
2018-02-21T01:14:37.094Z,60.15
2018-02-21T01:17:05.982Z,60.35
2018-02-21T01:19:34.816Z,55.95
2018-02-21T01:22:03.652Z,64.03
2018-02-21T01:24:32.547Z,55.75
2018-02-21T01:27:01.395Z,63.95
2018-02-21T01:29:30.226Z,61.13
2018-02-21T01:31:59.044Z,58.10
2018-02-21T01:34:27.921Z,53.03
2018-02-21T01:36:56.732Z,47.42
2018-02-21T01:39:25.576Z,47.80
2018-02-21T01:41:54.954Z,62.00
2018-02-21T01:44:23.869Z,52.88
2018-02-21T01:46:52.703Z,48.63
2018-02-21T01:49:21.590Z,47.60
2018-02-21T01:51:50.936Z,45.17
2018-02-21T01:54:19.749Z,43.90
2018-02-21T01:56:48.584Z,52.17
2018-02-21T01:59:17.452Z,50.40
2018-02-21T02:01:46.288Z,49.38
2018-02-21T02:04:15.136Z,50.83
2018-02-21T02:06:43.981Z,51.03
2018-02-21T02:09:12.789Z,49.75
2018-02-21T02:11:41.621Z,50.67
2018-02-21T02:14:10.470Z,59.15
2018-02-21T02:16:39.301Z,47.78
2018-02-21T02:19:08.121Z,50.03
2018-02-21T02:21:36.954Z,53.25
2018-02-21T02:24:05.796Z,44.97
2018-02-21T02:26:34.617Z,45.38
2018-02-21T02:29:03.520Z,51.35
2018-02-21T02:31:32.467Z,52.67
2018-02-21T02:34:01.273Z,46.88
2018-02-21T02:36:30.123Z,47.40
2018-02-21T02:39:04.720Z,54.22
2018-02-21T02:41:33.561Z,47.30
2018-02-21T02:44:02.375Z,46.17
2018-02-21T02:46:31.247Z,49.92
2018-02-21T02:49:00.056Z,50.00
2018-02-21T02:51:28.895Z,47.75
2018-02-21T02:53:57.841Z,50.15
2018-02-21T02:56:26.652Z,46.85
2018-02-21T02:58:55.488Z,50.22
2018-02-21T03:01:24.319Z,52.50
2018-02-21T03:03:53.159Z,51.63
2018-02-21T03:06:22.032Z,51.33
2018-02-21T03:08:50.836Z,52.42
2018-02-21T03:11:19.710Z,46.35
2018-02-21T03:13:48.537Z,52.42
2018-02-21T03:16:17.376Z,59.65
2018-02-21T03:18:46.188Z,60.40
2018-02-21T03:21:15.046Z,60.03
2018-02-21T03:23:43.879Z,60.40
2018-02-21T03:26:12.817Z,63.58
2018-02-21T03:28:41.632Z,57.55
2018-02-21T03:31:10.458Z,60.05
2018-02-21T03:33:39.287Z,64.40
2018-02-21T03:36:08.125Z,67.30
2018-02-21T03:38:36.940Z,57.95
2018-02-21T03:41:05.779Z,57.22
2018-02-21T03:43:34.592Z,55.78
2018-02-21T03:46:03.433Z,68.37
2018-02-21T03:48:32.290Z,72.20
2018-02-21T03:51:01.106Z,72.45
2018-02-21T03:53:29.944Z,72.00
2018-02-21T03:55:58.769Z,67.72
2018-02-21T03:58:27.659Z,77.00
2018-02-21T04:00:56.464Z,80.65
2018-02-21T04:03:25.407Z,77.22
2018-02-21T04:05:54.213Z,71.55
2018-02-21T04:08:23.044Z,84.10
2018-02-21T04:10:51.873Z,73.80
2018-02-21T04:13:20.694Z,62.50
2018-02-21T04:15:49.536Z,84.35
2018-02-21T04:18:18.366Z,81.97
2018-02-21T04:20:47.200Z,77.22
2018-02-21T04:23:16.019Z,75.18
2018-02-21T04:25:44.849Z,77.95
2018-02-21T04:28:13.714Z,83.43
2018-02-21T04:30:42.513Z,72.78
2018-02-21T04:33:11.344Z,76.00
2018-02-21T04:35:40.157Z,69.55
2018-02-21T04:38:09.036Z,66.50
2018-02-21T04:40:37.847Z,62.88
2018-02-21T04:43:06.650Z,66.87
2018-02-21T04:45:35.576Z,70.43
2018-02-21T04:48:04.407Z,67.07
2018-02-21T04:50:33.224Z,59.22
2018-02-21T04:53:02.259Z,63.70
2018-02-21T04:55:37.977Z,58.97
2018-02-21T04:58:26.701Z,59.47
2018-02-21T05:00:55.547Z,72.00
2018-02-21T05:03:24.372Z,64.93
2018-02-21T05:05:53.221Z,62.10
2018-02-21T05:08:22.023Z,60.60
2018-02-21T05:10:50.951Z,57.35
2018-02-21T05:13:19.934Z,50.58
2018-02-21T05:15:48.785Z,58.13
2018-02-21T05:18:17.626Z,58.33
2018-02-21T05:20:46.448Z,55.00
2018-02-21T05:23:15.285Z,61.22
2018-02-21T05:25:44.177Z,51.80
2018-02-21T05:28:13.016Z,53.55
2018-02-21T05:30:41.840Z,49.47
2018-02-21T05:33:10.654Z,53.30
2018-02-21T05:35:39.489Z,53.63
2018-02-21T05:38:08.301Z,50.30
2018-02-21T05:40:37.140Z,51.35
2018-02-21T05:43:05.950Z,54.85
2018-02-21T05:45:34.801Z,56.75
2018-02-21T05:48:03.610Z,49.85
2018-02-21T05:50:32.429Z,50.38
2018-02-21T05:53:01.296Z,50.15
2018-02-21T05:55:30.113Z,52.60
2018-02-21T05:57:58.933Z,45.65
2018-02-21T06:00:27.761Z,50.50
2018-02-21T06:02:56.593Z,46.60
2018-02-21T06:05:25.414Z,47.83
2018-02-21T06:07:54.271Z,45.03
2018-02-21T06:10:23.088Z,46.97
2018-02-21T06:12:51.931Z,46.17
2018-02-21T06:15:20.762Z,47.53
2018-02-21T06:17:49.582Z,50.97
2018-02-21T06:20:18.433Z,58.85
2018-02-21T06:22:47.312Z,59.60
2018-02-21T06:25:16.158Z,56.15
2018-02-21T06:27:44.979Z,60.53
2018-02-21T06:30:13.814Z,55.92
2018-02-21T06:32:42.631Z,60.90
2018-02-21T06:35:11.510Z,58.25
2018-02-21T06:37:40.322Z,59.53
2018-02-21T06:40:09.138Z,55.58
2018-02-21T06:42:37.973Z,54.83
2018-02-21T06:45:06.831Z,58.90
2018-02-21T06:47:35.675Z,59.53
2018-02-21T06:50:04.502Z,55.08
2018-02-21T06:52:33.353Z,60.55
2018-02-21T06:55:02.196Z,62.70
2018-02-21T06:57:31.038Z,59.50
2018-02-21T06:59:59.877Z,63.05
2018-02-21T07:02:34.796Z,63.83
2018-02-21T07:05:03.646Z,58.13
2018-02-21T07:07:32.465Z,69.05
2018-02-21T07:10:01.321Z,69.12
2018-02-21T07:12:30.134Z,70.57
2018-02-21T07:14:59.045Z,67.10
2018-02-21T07:17:27.854Z,61.15
2018-02-21T07:19:56.701Z,65.62
2018-02-21T07:22:25.541Z,68.60
2018-02-21T07:24:54.344Z,62.92
2018-02-21T07:27:23.181Z,67.35
2018-02-21T07:29:52.009Z,65.65
2018-02-21T07:32:20.925Z,68.65
2018-02-21T07:34:49.770Z,66.07
2018-02-21T07:37:18.650Z,66.50
2018-02-21T07:39:47.504Z,58.70
2018-02-21T07:42:16.429Z,65.12
2018-02-21T07:44:45.293Z,58.50
2018-02-21T07:47:14.106Z,68.05
2018-02-21T07:49:42.952Z,67.55
2018-02-21T07:52:11.780Z,63.58
2018-02-21T07:54:40.634Z,62.80
2018-02-21T07:57:09.466Z,68.20
2018-02-21T07:59:38.311Z,65.45
2018-02-21T08:02:07.137Z,67.82
2018-02-21T08:04:35.962Z,74.82
2018-02-21T08:07:04.820Z,75.85
2018-02-21T08:09:33.638Z,69.75
2018-02-21T08:12:02.516Z,67.28
2018-02-21T08:14:31.325Z,72.85
2018-02-21T08:17:00.202Z,74.85
2018-02-21T08:19:29.005Z,71.05
2018-02-21T08:21:57.808Z,67.07
2018-02-21T08:24:26.678Z,73.15
2018-02-21T08:26:55.502Z,69.00
2018-02-21T08:29:24.317Z,67.85
2018-02-21T08:31:53.166Z,68.85
2018-02-21T08:34:21.993Z,67.37
2018-02-21T08:36:50.836Z,64.93
2018-02-21T08:39:19.671Z,62.42
2018-02-21T08:41:48.524Z,67.12
2018-02-21T08:44:17.344Z,64.82
2018-02-21T08:46:46.222Z,71.43
2018-02-21T08:49:15.488Z,65.47
2018-02-21T08:51:44.434Z,68.82
2018-02-21T08:54:13.353Z,68.68
2018-02-21T08:56:42.194Z,68.30
2018-02-21T08:59:11.038Z,62.95
2018-02-21T09:01:39.876Z,75.05
2018-02-21T09:04:08.702Z,65.70
2018-02-21T09:06:37.516Z,64.05
2018-02-21T09:09:06.351Z,66.20
2018-02-21T09:11:35.185Z,64.37
2018-02-21T09:14:04.029Z,68.25
2018-02-21T09:16:32.956Z,58.10
2018-02-21T09:19:01.745Z,63.80
2018-02-21T09:21:30.584Z,64.82
2018-02-21T09:23:59.694Z,70.10
2018-02-21T09:26:28.554Z,66.65
2018-02-21T09:28:57.431Z,85.65
2018-02-21T09:31:26.276Z,69.05
2018-02-21T09:33:55.101Z,84.20
2018-02-21T09:36:23.935Z,66.18
2018-02-21T09:38:52.873Z,69.95
2018-02-21T09:41:21.706Z,70.40
2018-02-21T09:43:50.683Z,71.97
2018-02-21T09:46:19.529Z,71.28
2018-02-21T09:48:48.371Z,64.62
2018-02-21T09:51:17.210Z,63.33
2018-02-21T09:53:46.095Z,70.70
2018-02-21T09:56:14.925Z,63.60
2018-02-21T09:58:43.749Z,71.32
2018-02-21T10:01:12.605Z,67.07
2018-02-21T10:03:41.484Z,63.08
2018-02-21T10:06:10.323Z,66.05
2018-02-21T10:08:39.143Z,65.97
2018-02-21T10:11:08.019Z,85.32
2018-02-21T10:13:36.837Z,64.28
2018-02-21T10:16:05.660Z,96.43
2018-02-21T10:18:34.514Z,67.20
2018-02-21T10:21:03.334Z,87.80
2018-02-21T10:23:32.213Z,79.72
2018-02-21T10:26:01.050Z,54.83
2018-02-21T10:28:29.894Z,62.65
2018-02-21T10:30:58.727Z,81.93
2018-02-21T10:33:27.563Z,70.62
2018-02-21T10:35:56.433Z,76.57
2018-02-21T10:38:25.273Z,83.03
2018-02-21T10:40:54.125Z,71.07
2018-02-21T10:43:23.003Z,84.45
2018-02-21T10:45:51.820Z,70.75
2018-02-21T10:48:20.638Z,69.80
2018-02-21T10:50:49.481Z,72.32
2018-02-21T10:53:18.329Z,72.75
2018-02-21T10:55:47.197Z,64.45
2018-02-21T10:58:16.057Z,68.75
2018-02-21T11:00:50.787Z,72.05
2018-02-21T11:03:19.629Z,72.03
2018-02-21T11:05:48.587Z,74.60
2018-02-21T11:08:17.449Z,76.57
2018-02-21T11:10:46.249Z,73.43
2018-02-21T11:13:15.119Z,67.85
2018-02-21T11:15:43.935Z,65.10
2018-02-21T11:18:12.828Z,63.47
2018-02-21T11:20:41.711Z,80.15
2018-02-21T11:23:10.543Z,68.90
2018-02-21T11:25:39.404Z,67.32
2018-02-21T11:28:08.204Z,72.37
2018-02-21T11:30:37.869Z,71.35
2018-02-21T11:33:06.700Z,86.45
2018-02-21T11:35:35.543Z,66.78
2018-02-21T11:38:04.379Z,61.70
2018-02-21T11:43:08.530Z,70.82
2018-02-21T11:45:37.377Z,74.53
2018-02-21T11:48:06.215Z,66.95
2018-02-21T11:50:35.060Z,70.32
2018-02-21T11:53:03.913Z,66.43
2018-02-21T11:55:32.741Z,75.15
2018-02-21T11:58:01.597Z,70.68
2018-02-21T12:00:30.417Z,80.05
2018-02-21T12:02:59.249Z,75.50
2018-02-21T12:05:28.095Z,71.60
2018-02-21T12:07:56.930Z,74.55
2018-02-21T12:10:25.796Z,65.80
2018-02-21T12:12:54.631Z,67.37
2018-02-21T12:15:23.481Z,62.67
2018-02-21T12:17:52.320Z,67.12
2018-02-21T12:20:21.190Z,74.07
2018-02-21T12:22:50.019Z,66.28
2018-02-21T12:25:18.830Z,70.20
2018-02-21T12:27:47.701Z,67.40
2018-02-21T12:30:16.512Z,70.45
2018-02-21T12:32:50.277Z,63.65
2018-02-21T12:35:19.114Z,61.70
2018-02-21T12:37:47.954Z,67.43
2018-02-21T12:40:22.665Z,61.92
2018-02-21T12:42:51.513Z,68.05
2018-02-21T12:45:20.407Z,69.72
2018-02-21T12:47:49.290Z,84.28
2018-02-21T12:50:18.287Z,68.03
2018-02-21T12:52:47.084Z,67.80
2018-02-21T12:55:15.912Z,68.68
2018-02-21T12:57:44.733Z,56.78
2018-02-21T13:00:13.612Z,70.57
2018-02-21T13:02:42.456Z,69.00
2018-02-21T13:05:11.288Z,59.03
2018-02-21T13:07:40.230Z,57.33
2018-02-21T13:10:09.003Z,61.67
2018-02-21T13:12:37.868Z,70.97
2018-02-21T13:15:06.697Z,62.43
2018-02-21T13:17:35.528Z,58.33
2018-02-21T13:20:05.401Z,62.13
2018-02-21T13:22:34.767Z,58.37
2018-02-21T13:25:04.928Z,64.97
2018-02-21T13:27:33.761Z,56.60
2018-02-21T13:30:02.689Z,56.17
2018-02-21T13:32:31.521Z,57.77
2018-02-21T13:35:00.445Z,55.40
2018-02-21T13:37:30.025Z,59.97
2018-02-21T13:39:58.874Z,54.77
2018-02-21T13:42:27.704Z,60.13
2018-02-21T13:44:56.536Z,70.33
2018-02-21T13:47:25.372Z,51.60
2018-02-21T13:49:54.219Z,50.63
2018-02-21T13:52:23.067Z,55.63
2018-02-21T13:54:51.912Z,59.63
2018-02-21T13:57:20.748Z,58.33
2018-02-21T13:59:49.588Z,54.13
2018-02-21T14:02:19.271Z,55.00
2018-02-21T14:04:48.163Z,57.03
2018-02-21T14:07:16.990Z,55.17
2018-02-21T14:09:45.916Z,52.73
2018-02-21T14:12:14.819Z,58.00
2018-02-21T14:14:43.729Z,51.97
2018-02-21T14:17:12.573Z,49.07
2018-02-21T14:19:41.437Z,52.07
2018-02-21T14:22:10.289Z,48.03
2018-02-21T14:24:39.112Z,50.00
2018-02-21T14:27:07.953Z,51.70
2018-02-21T14:29:36.773Z,52.00
2018-02-21T14:32:05.597Z,58.30
2018-02-21T14:34:34.452Z,51.47
2018-02-21T14:37:03.303Z,49.20
2018-02-21T14:39:32.118Z,49.10
2018-02-21T14:42:00.928Z,50.53
2018-02-21T14:44:29.785Z,46.77
2018-02-21T14:46:58.601Z,49.90
2018-02-21T14:49:27.503Z,48.13
2018-02-21T14:51:56.338Z,52.30
2018-02-21T14:54:25.212Z,46.73
2018-02-21T14:56:54.043Z,50.73
2018-02-21T14:59:23.346Z,45.67
2018-02-21T15:01:52.275Z,50.17
2018-02-21T15:04:21.223Z,49.17
2018-02-21T15:06:50.272Z,47.97
2018-02-21T15:09:19.128Z,47.00
2018-02-21T15:11:48.051Z,46.33
2018-02-21T15:14:16.939Z,48.83
2018-02-21T15:16:45.803Z,51.30
2018-02-21T15:19:14.639Z,52.27
2018-02-21T15:21:43.508Z,47.67
2018-02-21T15:24:12.385Z,51.93
2018-02-21T15:26:41.310Z,51.60
2018-02-21T15:29:10.172Z,52.80
2018-02-21T15:31:39.049Z,46.70
2018-02-21T15:34:07.950Z,46.60
2018-02-21T15:36:36.802Z,47.00
2018-02-21T15:39:05.694Z,42.90
2018-02-21T15:41:34.509Z,53.73
2018-02-21T15:44:03.368Z,53.10
2018-02-21T15:46:32.216Z,63.47
2018-02-21T15:49:01.078Z,64.43
2018-02-21T15:51:29.897Z,46.53
2018-02-21T15:53:58.804Z,45.83
2018-02-21T15:56:27.625Z,58.73
2018-02-21T15:58:56.630Z,65.03
2018-02-21T16:01:25.499Z,45.50
2018-02-21T16:03:54.375Z,48.27
2018-02-21T16:06:24.143Z,51.67
2018-02-21T16:08:53.062Z,51.90
2018-02-21T16:11:21.962Z,52.07
2018-02-21T16:13:50.914Z,50.77
2018-02-21T16:16:19.854Z,53.30
2018-02-21T16:18:48.715Z,50.42
2018-02-21T16:21:17.534Z,64.97
2018-02-21T16:23:46.409Z,53.00
2018-02-21T16:26:15.278Z,57.45
2018-02-21T16:28:44.137Z,65.28
2018-02-21T16:31:13.001Z,61.05
2018-02-21T16:33:41.853Z,52.45
2018-02-21T16:36:10.797Z,60.72
2018-02-21T16:38:39.686Z,54.92
2018-02-21T16:41:08.883Z,56.15
2018-02-21T16:43:37.739Z,95.55
2018-02-21T16:46:07.209Z,103.15
2018-02-21T16:48:36.050Z,84.03
2018-02-21T16:51:04.926Z,62.38
2018-02-21T16:53:33.806Z,55.45
2018-02-21T16:56:02.702Z,51.22
2018-02-21T16:58:31.535Z,52.58
2018-02-21T17:01:00.371Z,61.50
2018-02-21T17:03:29.237Z,53.15
2018-02-21T17:05:58.098Z,51.40
2018-02-21T17:08:26.957Z,60.00
2018-02-21T17:10:55.805Z,65.65
2018-02-21T17:13:24.663Z,59.60
2018-02-21T17:15:53.504Z,57.88
2018-02-21T17:18:22.354Z,54.88
2018-02-21T17:20:51.311Z,66.82
2018-02-21T17:23:20.171Z,58.05
2018-02-21T17:25:49.031Z,79.10
2018-02-21T17:28:17.909Z,65.60
2018-02-21T17:30:46.749Z,69.93
2018-02-21T17:33:15.616Z,64.43
2018-02-21T17:35:44.465Z,54.35
2018-02-21T17:38:13.326Z,60.92
2018-02-21T17:40:47.993Z,55.22
2018-02-21T17:43:16.944Z,54.28
2018-02-21T17:45:45.825Z,59.22
2018-02-21T17:48:14.693Z,57.92
2018-02-21T17:50:43.565Z,56.35
2018-02-21T17:53:12.423Z,55.95
2018-02-21T17:55:41.284Z,60.65
2018-02-21T17:58:10.113Z,60.33
2018-02-21T18:00:39.029Z,56.50
2018-02-21T18:03:07.868Z,58.13
2018-02-21T18:05:36.709Z,56.85
2018-02-21T18:08:06.479Z,69.62
2018-02-21T18:10:35.327Z,79.95
2018-02-21T18:13:04.215Z,54.55
2018-02-21T18:15:33.063Z,53.00
2018-02-21T18:18:01.916Z,64.95
2018-02-21T18:20:30.786Z,91.87
2018-02-21T18:22:59.642Z,62.85
2018-02-21T18:25:28.507Z,61.40
2018-02-21T18:27:57.389Z,57.53
2018-02-21T18:30:26.249Z,58.17
2018-02-21T18:32:55.097Z,82.57
2018-02-21T18:35:24.397Z,97.97
2018-02-21T18:37:53.293Z,58.90
2018-02-21T18:40:22.157Z,56.95
2018-02-21T18:42:50.976Z,72.87
2018-02-21T18:45:19.928Z,59.13
2018-02-21T18:47:48.812Z,61.83
2018-02-21T18:50:17.665Z,58.72
2018-02-21T18:52:46.526Z,58.28
2018-02-21T18:55:15.386Z,55.90
2018-02-21T18:57:44.323Z,54.15
2018-02-21T19:00:13.188Z,53.60
2018-02-21T19:02:42.022Z,56.72
2018-02-21T19:05:10.906Z,52.65
2018-02-21T19:07:39.801Z,52.42
2018-02-21T19:10:08.686Z,61.22
2018-02-21T19:12:37.537Z,65.43
2018-02-21T19:15:06.369Z,54.53
2018-02-21T19:17:35.288Z,59.70
2018-02-21T19:20:04.114Z,55.28
2018-02-21T19:22:32.961Z,55.67
2018-02-21T19:25:01.891Z,56.37
2018-02-21T19:27:30.723Z,52.30
2018-02-21T19:29:59.555Z,56.97
2018-02-21T19:32:28.429Z,58.55
2018-02-21T19:34:57.305Z,61.05
2018-02-21T19:37:26.182Z,52.55
2018-02-21T19:39:55.011Z,53.55
2018-02-21T19:42:23.947Z,54.55
2018-02-21T19:44:52.799Z,49.97
2018-02-21T19:47:21.662Z,54.95
2018-02-21T19:49:50.551Z,49.72
2018-02-21T19:52:19.436Z,54.70
2018-02-21T19:54:48.340Z,47.85
2018-02-21T19:57:17.211Z,48.03
2018-02-21T19:59:46.083Z,43.80
2018-02-21T20:02:14.988Z,46.70
2018-02-21T20:04:43.845Z,50.40
2018-02-21T20:07:12.725Z,47.70
2018-02-21T20:09:41.615Z,45.20
2018-02-21T20:12:10.455Z,49.03
2018-02-21T20:14:39.326Z,52.83
2018-02-21T20:17:08.187Z,48.53
2018-02-21T20:19:37.064Z,47.05
2018-02-21T20:22:05.918Z,53.78
2018-02-21T20:24:34.776Z,52.80
2018-02-21T20:27:03.609Z,47.03
2018-02-21T20:29:32.483Z,57.72
2018-02-21T20:32:01.340Z,51.45
2018-02-21T20:34:30.677Z,48.85
2018-02-21T20:36:59.542Z,46.97
2018-02-21T20:39:28.425Z,53.63
2018-02-21T20:41:57.297Z,50.25
2018-02-21T20:44:26.136Z,63.55
2018-02-21T20:46:55.478Z,50.85
2018-02-21T20:49:24.328Z,48.45
2018-02-21T20:51:53.237Z,54.50
2018-02-21T20:54:22.080Z,52.40
2018-02-21T20:56:50.928Z,48.45
2018-02-21T20:59:19.787Z,46.05
2018-02-21T21:01:48.662Z,42.30
2018-02-21T21:04:17.496Z,51.88
2018-02-21T21:06:46.558Z,42.95
2018-02-21T21:09:15.441Z,56.80
2018-02-21T21:11:44.242Z,50.10
2018-02-21T21:14:13.098Z,43.10
2018-02-21T21:16:41.982Z,46.78
2018-02-21T21:19:10.892Z,52.90
2018-02-21T21:21:39.749Z,52.17
2018-02-21T21:24:08.550Z,53.65
2018-02-21T21:26:37.442Z,55.83
2018-02-21T21:29:06.291Z,53.87
2018-02-21T21:31:35.163Z,56.92
2018-02-21T21:34:04.024Z,49.03
2018-02-21T21:36:32.914Z,54.03
2018-02-21T21:39:01.744Z,54.63
2018-02-21T21:41:30.594Z,55.12
2018-02-21T21:43:59.449Z,51.10
2018-02-21T21:46:28.270Z,52.30
2018-02-21T21:48:57.199Z,51.55
2018-02-21T21:51:26.160Z,50.75
2018-02-21T21:53:55.013Z,73.62
2018-02-21T21:56:23.905Z,63.00
2018-02-21T21:58:52.743Z,63.87
2018-02-21T22:01:21.682Z,62.17
2018-02-21T22:03:50.562Z,58.65
2018-02-21T22:06:19.391Z,57.20
2018-02-21T22:08:48.219Z,60.15
2018-02-21T22:11:17.078Z,61.83
2018-02-21T22:13:45.912Z,67.15
2018-02-21T22:16:14.758Z,61.95
2018-02-21T22:18:43.576Z,64.00
2018-02-21T22:21:12.437Z,56.13
2018-02-21T22:23:41.261Z,49.70
2018-02-21T22:26:10.138Z,57.45
2018-02-21T22:28:38.969Z,64.85
2018-02-21T22:31:07.774Z,55.85
2018-02-21T22:33:36.756Z,52.28
2018-02-21T22:36:05.558Z,56.28
2018-02-21T22:38:34.529Z,48.00
2018-02-21T22:41:03.383Z,45.33
2018-02-21T22:43:32.276Z,61.83
2018-02-21T22:46:01.152Z,60.20
2018-02-21T22:48:29.969Z,53.78
2018-02-21T22:50:58.857Z,58.13
2018-02-21T22:53:27.697Z,47.85
2018-02-21T22:55:56.531Z,79.20
2018-02-21T22:58:25.346Z,51.78
2018-02-21T23:00:54.253Z,48.15
2018-02-21T23:03:23.085Z,46.25
2018-02-21T23:05:52.631Z,46.83
2018-02-21T23:08:21.466Z,51.80
2018-02-21T23:10:50.311Z,45.72
2018-02-21T23:13:19.381Z,54.67
2018-02-21T23:15:48.201Z,53.45
2018-02-21T23:18:17.065Z,49.17
2018-02-21T23:20:45.893Z,48.17
2018-02-21T23:23:14.709Z,48.47
2018-02-21T23:25:43.627Z,59.22
2018-02-21T23:28:15.450Z,58.38
2018-02-21T23:30:45.380Z,58.58
2018-02-21T23:33:14.689Z,55.72
2018-02-21T23:35:45.538Z,47.65
2018-02-21T23:38:14.614Z,37.05
2018-02-21T23:40:43.634Z,40.38
2018-02-21T23:43:12.468Z,49.25
2018-02-21T23:45:41.492Z,43.08
2018-02-21T23:48:10.430Z,39.90
2018-02-21T23:50:41.148Z,44.80
2018-02-21T23:53:11.395Z,49.80
2018-02-21T23:55:41.115Z,45.53
2018-02-21T23:58:10.999Z,45.35
